Time;durP1;ratioP1;P1;durP2;ratioP2;P2;SDS_P1;SDS_P2;PMS_P1;PMS_P2;Temp;Humidity;BMP_temperature;BMP_pressure;BME280_temperature;BME280_humidity;BME280_pressure;Samples;Min_cycle;Max_cycle;Signal;HPM_P1;HPM_P2
2023/05/22 00:00:07;;;;;;;12.80;9.50;;;;;;;20.41;70.15;99876.25;4992944;28;20224;-65
2023/05/22 00:02:41;;;;;;;11.00;8.93;;;;;;;20.41;70.61;99870.50;4973278;28;20189;-65
2023/05/22 00:05:09;;;;;;;10.20;9.10;;;;;;;20.41;70.38;99866.84;4992412;28;20793;-64
2023/05/22 00:07:34;;;;;;;15.07;9.60;;;;;;;20.40;70.06;99873.75;4992479;28;20590;-65
2023/05/22 00:09:59;;;;;;;11.30;8.37;;;;;;;20.41;70.26;99867.63;4992200;28;20911;-65
2023/05/22 00:12:25;;;;;;;11.50;9.00;;;;;;;20.40;70.32;99870.91;5024206;28;20207;-65
2023/05/22 00:14:51;;;;;;;11.30;9.20;;;;;;;20.41;70.12;99870.50;5011710;28;20179;-64
2023/05/22 00:17:17;;;;;;;11.03;8.47;;;;;;;20.41;70.48;99876.25;5020985;28;20248;-64
2023/05/22 00:19:42;;;;;;;12.40;9.10;;;;;;;20.40;70.59;99871.72;5024698;28;20845;-64
2023/05/22 00:22:08;;;;;;;11.93;9.20;;;;;;;20.39;70.03;99867.22;5048877;28;20180;-65
2023/05/22 00:24:34;;;;;;;14.33;9.30;;;;;;;20.41;69.82;99872.56;5011405;28;20196;-65
2023/05/22 00:26:59;;;;;;;11.13;8.60;;;;;;;20.40;70.32;99874.59;5027747;28;20176;-64
2023/05/22 00:29:25;;;;;;;10.53;8.57;;;;;;;20.41;69.94;99869.69;5026197;28;20203;-65
2023/05/22 00:31:50;;;;;;;12.70;9.53;;;;;;;20.39;70.31;99875.84;5029328;28;20176;-64
2023/05/22 00:34:16;;;;;;;13.23;9.40;;;;;;;20.39;70.23;99883.59;5026851;28;20234;-65
2023/05/22 00:36:41;;;;;;;10.87;9.37;;;;;;;20.38;70.40;99871.31;5011667;28;20185;-62
2023/05/22 00:39:08;;;;;;;14.03;9.90;;;;;;;20.39;70.24;99881.56;5009092;28;20196;-62
2023/05/22 00:41:33;;;;;;;11.13;9.00;;;;;;;20.39;70.11;99877.88;5011007;28;20196;-62
2023/05/22 00:43:59;;;;;;;12.67;9.60;;;;;;;20.38;70.18;99879.09;5025949;28;20434;-62
2023/05/22 00:46:25;;;;;;;10.67;8.83;;;;;;;20.38;70.28;99870.50;5023757;28;20165;-62
2023/05/22 00:48:51;;;;;;;10.60;8.47;;;;;;;20.37;69.66;99884.00;5010691;28;20189;-63
2023/05/22 00:51:18;;;;;;;12.00;8.47;;;;;;;20.35;70.06;99872.13;5046867;28;20286;-63
2023/05/22 00:53:45;;;;;;;11.53;8.97;;;;;;;20.37;70.33;99875.41;5031327;28;20919;-62
2023/05/22 00:56:11;;;;;;;10.50;8.87;;;;;;;20.35;70.34;99883.59;5012654;28;20443;-62
2023/05/22 00:58:36;;;;;;;11.33;9.30;;;;;;;20.35;70.39;99895.06;5009145;28;20499;-62
2023/05/22 01:01:02;;;;;;;11.80;8.80;;;;;;;20.35;70.10;99892.19;5022338;28;20455;-63
2023/05/22 01:03:28;;;;;;;10.33;9.10;;;;;;;20.36;69.85;99893.03;5025070;28;20694;-62
2023/05/22 01:05:54;;;;;;;12.50;9.47;;;;;;;20.34;70.29;99893.44;5028034;28;20184;-63
2023/05/22 01:08:20;;;;;;;13.40;10.03;;;;;;;20.35;70.43;99894.22;5016070;28;20474;-62
2023/05/22 01:10:46;;;;;;;12.40;9.60;;;;;;;20.35;69.89;99895.06;5025002;28;20278;-62
2023/05/22 01:13:17;;;;;;;12.27;9.10;;;;;;;20.36;70.28;99904.50;4991784;28;20172;-62
2023/05/22 01:15:44;;;;;;;13.50;9.97;;;;;;;20.35;70.60;99905.69;5012644;28;20206;-62
2023/05/22 01:18:37;;;;;;;12.53;9.10;;;;;;;20.34;70.38;99902.03;5021306;28;20986;-63
2023/05/22 01:21:09;;;;;;;12.57;9.03;;;;;;;20.34;70.57;99910.63;5042887;28;20438;-62
2023/05/22 01:23:52;;;;;;;12.53;10.00;;;;;;;20.35;70.44;99908.56;5002351;28;20443;-62
2023/05/22 01:26:24;;;;;;;10.77;8.60;;;;;;;20.34;70.66;99904.88;5006292;28;20404;-62
2023/05/22 01:29:11;;;;;;;16.73;9.47;;;;;;;20.35;70.66;99902.81;5009927;28;20483;-62
2023/05/22 01:31:38;;;;;;;10.97;9.07;;;;;;;20.34;70.45;99907.75;5026251;28;20829;-62
2023/05/22 01:34:04;;;;;;;11.80;9.27;;;;;;;20.34;70.38;99910.63;5028698;28;20985;-62
2023/05/22 01:36:30;;;;;;;12.60;9.73;;;;;;;20.34;70.13;99910.63;5011033;28;20490;-62
2023/05/22 01:38:57;;;;;;;13.63;9.63;;;;;;;20.35;70.36;99918.00;5007400;28;20189;-62
2023/05/22 01:41:23;;;;;;;11.53;9.90;;;;;;;20.34;70.05;99919.22;5016127;28;21385;-62
2023/05/22 01:43:48;;;;;;;11.33;9.27;;;;;;;20.33;70.13;99917.59;5026765;28;20461;-62
2023/05/22 01:46:14;;;;;;;11.07;8.60;;;;;;;20.34;70.57;99921.25;5026185;28;20173;-63
2023/05/22 01:48:39;;;;;;;10.80;9.03;;;;;;;20.32;70.47;99924.53;5021895;28;20246;-63
2023/05/22 01:51:40;;;;;;;10.90;9.20;;;;;;;20.32;70.43;99924.53;5049536;28;20187;-62
2023/05/22 01:54:36;;;;;;;11.00;9.13;;;;;;;20.33;70.27;99934.78;5023757;28;20193;-62
2023/05/22 01:57:06;;;;;;;11.10;9.37;;;;;;;20.32;70.49;99927.38;5031101;28;20920;-61
2023/05/22 01:59:54;;;;;;;11.60;9.30;;;;;;;20.33;70.48;99919.63;5021336;28;20467;-62
2023/05/22 02:02:20;;;;;;;12.13;9.43;;;;;;;20.31;70.10;99928.63;4997262;28;20447;-62
2023/05/22 02:04:50;;;;;;;11.33;9.00;;;;;;;20.32;70.37;99923.72;4998392;28;20470;-62
2023/05/22 02:07:15;;;;;;;13.10;10.17;;;;;;;20.31;70.40;99928.63;5032457;28;20541;-61
2023/05/22 02:09:41;;;;;;;11.93;9.40;;;;;;;20.30;70.61;99926.97;5014720;28;20882;-63
2023/05/22 02:12:07;;;;;;;12.57;9.70;;;;;;;20.30;70.19;99932.72;5018006;28;20552;-62
2023/05/22 02:14:32;;;;;;;12.20;9.40;;;;;;;20.31;70.21;99940.09;5012671;28;20192;-63
2023/05/22 02:17:00;;;;;;;12.67;8.90;;;;;;;20.31;70.11;99937.22;5013670;28;20239;-62
2023/05/22 02:19:26;;;;;;;11.83;9.30;;;;;;;20.31;70.09;99933.56;5021437;28;20666;-62
2023/05/22 02:21:52;;;;;;;11.10;9.60;;;;;;;20.31;70.27;99945.81;5027402;28;20443;-61
2023/05/22 02:24:17;;;;;;;11.57;9.70;;;;;;;20.30;70.51;99946.22;5029787;28;20195;-62
2023/05/22 02:26:43;;;;;;;10.70;9.43;;;;;;;20.30;70.46;99944.19;5013886;28;20180;-62
2023/05/22 02:29:08;;;;;;;10.70;8.87;;;;;;;20.30;69.87;99943.34;5016284;28;20741;-62
2023/05/22 02:31:34;;;;;;;11.67;9.43;;;;;;;20.29;70.27;99942.56;5012276;28;20185;-63
2023/05/22 02:33:59;;;;;;;11.13;9.20;;;;;;;20.30;69.77;99943.34;5012191;28;20185;-63
2023/05/22 02:36:25;;;;;;;11.20;9.00;;;;;;;20.29;70.13;99936.81;5010139;28;20632;-63
2023/05/22 02:38:51;;;;;;;10.73;9.37;;;;;;;20.30;70.07;99940.47;5015067;28;20193;-64
2023/05/22 02:41:17;;;;;;;14.20;10.40;;;;;;;20.29;70.14;99936.81;5010699;28;20181;-64
2023/05/22 02:43:42;;;;;;;11.27;9.50;;;;;;;20.29;69.96;99933.94;5013380;28;20973;-64
2023/05/22 02:46:07;;;;;;;11.60;9.43;;;;;;;20.28;69.83;99938.03;5029941;28;20457;-64
2023/05/22 02:48:33;;;;;;;13.53;9.90;;;;;;;20.28;69.71;99929.44;5012114;28;20193;-64
2023/05/22 02:50:58;;;;;;;11.93;9.67;;;;;;;20.28;69.96;99929.44;5047836;28;20191;-63
2023/05/22 02:53:24;;;;;;;14.60;10.40;;;;;;;20.28;70.06;99923.72;5050605;28;20183;-64
2023/05/22 02:55:51;;;;;;;13.00;10.30;;;;;;;20.28;70.37;99926.56;5024985;28;20193;-64
2023/05/22 02:58:17;;;;;;;12.60;10.23;;;;;;;20.28;69.93;99929.44;5028782;28;20184;-64
2023/05/22 03:00:44;;;;;;;12.07;9.23;;;;;;;20.27;70.02;99922.03;5028748;28;20476;-64
2023/05/22 03:03:10;;;;;;;12.37;9.87;;;;;;;20.28;70.01;99929.44;4993727;28;20411;-64
2023/05/22 03:05:35;;;;;;;11.67;10.00;;;;;;;20.27;70.38;99922.03;5011073;28;20443;-64
2023/05/22 03:08:00;;;;;;;11.73;9.80;;;;;;;20.28;70.13;99917.16;5013371;28;20487;-63
2023/05/22 03:10:26;;;;;;;13.17;9.70;;;;;;;20.28;70.03;99917.16;5011024;28;20261;-64
2023/05/22 03:12:52;;;;;;;14.10;8.83;;;;;;;20.27;70.55;99918.38;5020279;28;20169;-64
2023/05/22 03:15:17;;;;;;;14.20;9.97;;;;;;;20.27;70.35;99915.50;5030228;28;20914;-64
2023/05/22 03:17:43;;;;;;;11.80;9.27;;;;;;;20.26;70.22;99914.66;5016405;28;20189;-63
2023/05/22 03:20:08;;;;;;;10.77;9.40;;;;;;;20.27;70.08;99922.03;5039932;28;20207;-64
2023/05/22 03:22:34;;;;;;;11.17;9.10;;;;;;;20.27;70.34;99921.25;5032710;28;20572;-64
2023/05/22 03:25:00;;;;;;;14.23;8.73;;;;;;;20.26;70.17;99916.72;5028866;28;20633;-64
2023/05/22 03:27:25;;;;;;;14.93;8.67;;;;;;;20.26;70.40;99920.41;5027120;28;20188;-63
2023/05/22 03:29:51;;;;;;;15.87;9.57;;;;;;;20.27;70.24;99922.03;5015405;28;20768;-63
2023/05/22 03:32:16;;;;;;;12.00;9.90;;;;;;;20.27;70.56;99915.50;5028196;28;20188;-64
2023/05/22 03:34:42;;;;;;;11.43;9.30;;;;;;;20.27;70.08;99929.84;5019570;28;20193;-64
2023/05/22 03:37:08;;;;;;;11.97;8.97;;;;;;;20.27;70.35;99926.97;5009813;28;20652;-64
2023/05/22 03:39:34;;;;;;;12.20;8.90;;;;;;;20.28;70.42;99931.47;5011118;28;20676;-64
2023/05/22 03:42:00;;;;;;;13.23;9.77;;;;;;;20.27;70.07;99932.69;5022881;28;20287;-64
2023/05/22 03:44:25;;;;;;;12.47;9.47;;;;;;;20.27;70.07;99927.78;5025395;28;20906;-64
2023/05/22 03:46:50;;;;;;;13.07;10.27;;;;;;;20.26;69.83;99925.34;5028229;28;20196;-63
2023/05/22 03:49:16;;;;;;;9.97;8.77;;;;;;;20.27;69.96;99932.69;5029286;28;20572;-64
2023/05/22 03:51:41;;;;;;;12.27;9.23;;;;;;;20.27;70.05;99926.97;5025717;28;20176;-65
2023/05/22 03:54:07;;;;;;;10.80;8.33;;;;;;;20.26;70.01;99931.88;5011151;28;20185;-64
2023/05/22 03:56:33;;;;;;;12.07;8.83;;;;;;;20.27;70.01;99927.78;5010583;28;20636;-64
2023/05/22 03:58:58;;;;;;;10.67;8.93;;;;;;;20.26;70.10;99926.13;5009920;28;20288;-64
2023/05/22 04:01:24;;;;;;;11.87;8.63;;;;;;;20.27;69.84;99929.84;5012994;28;20439;-63
2023/05/22 04:03:49;;;;;;;12.63;9.10;;;;;;;20.26;70.05;99929.00;5009983;28;20197;-64
2023/05/22 04:06:15;;;;;;;11.40;9.10;;;;;;;20.26;70.42;99931.06;5018562;28;20284;-63
2023/05/22 04:08:40;;;;;;;12.37;9.30;;;;;;;20.24;70.01;99928.59;4998307;28;20204;-64
2023/05/22 04:11:06;;;;;;;10.23;7.77;;;;;;;20.26;70.25;99928.19;5015323;28;20182;-64
2023/05/22 04:13:32;;;;;;;10.93;9.27;;;;;;;20.25;69.97;99924.50;5026745;28;20191;-64
2023/05/22 04:15:57;;;;;;;9.83;8.30;;;;;;;20.25;69.50;99924.50;5027200;28;20188;-64
2023/05/22 04:18:22;;;;;;;11.63;8.67;;;;;;;20.25;69.63;99921.63;5031428;28;20407;-64
2023/05/22 04:20:50;;;;;;;11.90;9.10;;;;;;;20.25;69.93;99920.81;5045786;28;20807;-63
2023/05/22 04:23:16;;;;;;;10.73;8.70;;;;;;;20.24;69.74;99928.59;5015460;28;20715;-64
2023/05/22 04:25:42;;;;;;;11.77;8.93;;;;;;;20.24;69.61;99931.47;5009780;28;20513;-64
2023/05/22 04:28:08;;;;;;;11.53;9.10;;;;;;;20.25;69.51;99920.81;5009343;28;20175;-64
2023/05/22 04:30:35;;;;;;;10.10;8.57;;;;;;;20.25;69.70;99933.09;5009448;28;20191;-64
2023/05/22 04:33:01;;;;;;;11.70;9.40;;;;;;;20.26;69.81;99931.06;4994886;28;20436;-64
2023/05/22 04:35:28;;;;;;;10.27;8.43;;;;;;;20.25;70.08;99924.50;5008703;28;20458;-64
2023/05/22 04:37:55;;;;;;;14.10;9.20;;;;;;;20.26;70.03;99931.06;5011239;28;20958;-64
2023/05/22 04:40:20;;;;;;;10.73;8.30;;;;;;;20.26;69.88;99934.75;5008810;28;20482;-64
2023/05/22 04:42:46;;;;;;;11.10;9.40;;;;;;;20.27;69.68;99941.31;5014552;28;20928;-64
2023/05/22 04:45:12;;;;;;;12.60;8.53;;;;;;;20.28;70.05;99940.91;5009659;28;20538;-64
2023/05/22 04:47:40;;;;;;;11.40;9.20;;;;;;;20.29;69.88;99942.56;5010424;28;20212;-64
2023/05/22 04:50:06;;;;;;;12.43;9.10;;;;;;;20.30;69.55;99934.75;5031372;28;21052;-64
2023/05/22 04:52:31;;;;;;;11.20;8.90;;;;;;;20.30;69.90;99941.31;5036173;28;20440;-64
2023/05/22 04:54:57;;;;;;;11.80;8.80;;;;;;;20.30;69.42;99941.31;5029272;28;20964;-64
2023/05/22 04:57:24;;;;;;;13.27;9.53;;;;;;;20.30;69.83;99946.22;5029096;28;20632;-64
2023/05/22 04:59:50;;;;;;;12.50;9.40;;;;;;;20.30;69.67;99946.22;5024379;28;20200;-64
2023/05/22 05:02:15;;;;;;;10.43;9.30;;;;;;;20.30;69.88;99954.81;5014062;28;20451;-64
2023/05/22 05:04:42;;;;;;;11.80;8.80;;;;;;;20.30;69.91;99954.81;5027222;28;20188;-64
2023/05/22 05:07:07;;;;;;;11.77;8.73;;;;;;;20.29;69.96;99951.16;5021979;28;20221;-63
2023/05/22 05:09:33;;;;;;;11.67;9.07;;;;;;;20.29;70.03;99958.91;5007430;28;21090;-64
2023/05/22 05:11:58;;;;;;;12.80;9.53;;;;;;;20.29;69.99;99951.16;4992364;28;20177;-65
2023/05/22 05:14:24;;;;;;;9.73;8.20;;;;;;;20.29;70.62;99958.91;5011020;28;20193;-64
2023/05/22 05:16:53;;;;;;;11.23;8.83;;;;;;;20.27;70.34;99944.16;5010256;28;20165;-64
2023/05/22 05:19:21;;;;;;;10.97;9.07;;;;;;;20.25;70.57;99953.16;5018281;28;20625;-64
2023/05/22 05:21:48;;;;;;;10.90;8.80;;;;;;;20.25;70.55;99961.78;5033283;28;20879;-64
2023/05/22 05:24:14;;;;;;;10.23;8.60;;;;;;;20.25;70.55;99952.34;5026963;28;20411;-63
2023/05/22 05:26:40;;;;;;;10.90;9.17;;;;;;;20.22;70.69;99950.28;5011066;28;20528;-64
2023/05/22 05:29:05;;;;;;;12.13;9.50;;;;;;;20.24;70.69;99950.69;4992084;28;20408;-65
2023/05/22 05:31:31;;;;;;;13.73;10.40;;;;;;;20.24;70.89;99960.13;5009389;28;20185;-64
2023/05/22 05:33:57;;;;;;;11.50;9.50;;;;;;;20.24;71.06;99956.44;5011688;28;21015;-64
2023/05/22 05:36:25;;;;;;;11.20;8.80;;;;;;;20.24;70.73;99962.16;5008737;28;20455;-64
2023/05/22 05:38:51;;;;;;;12.10;9.60;;;;;;;20.24;70.53;99968.72;5020035;28;20169;-64
2023/05/22 05:41:17;;;;;;;13.40;10.27;;;;;;;20.25;70.75;99967.50;5023228;28;20894;-64
2023/05/22 05:43:43;;;;;;;12.23;9.10;;;;;;;20.25;70.65;99970.38;5023689;28;20191;-64
2023/05/22 05:46:09;;;;;;;11.37;9.00;;;;;;;20.24;70.56;99968.72;5029364;28;20443;-64
2023/05/22 05:48:34;;;;;;;12.73;9.97;;;;;;;20.25;70.43;99961.78;5042111;28;20185;-64
2023/05/22 05:50:59;;;;;;;12.17;9.60;;;;;;;20.25;70.61;99964.63;5044077;28;20176;-64
2023/05/22 05:53:25;;;;;;;11.23;9.63;;;;;;;20.24;70.63;99974.47;5047878;28;20156;-65
2023/05/22 05:55:50;;;;;;;11.13;9.10;;;;;;;20.24;70.38;99977.31;5030697;28;20163;-64
2023/05/22 05:58:16;;;;;;;11.20;9.50;;;;;;;20.25;70.57;99976.09;5035864;28;20612;-64
2023/05/22 06:00:41;;;;;;;13.70;9.53;;;;;;;20.25;70.93;99973.22;5009443;28;20197;-64
2023/05/22 06:03:07;;;;;;;11.63;8.90;;;;;;;20.24;70.63;99974.47;5009553;28;20621;-64
2023/05/22 06:05:32;;;;;;;10.37;9.23;;;;;;;20.25;70.84;99981.00;5009721;28;20751;-64
2023/05/22 06:07:58;;;;;;;11.27;9.27;;;;;;;20.25;71.22;99981.00;5008773;28;20232;-64
2023/05/22 06:10:23;;;;;;;11.07;9.23;;;;;;;20.24;71.09;99980.19;5009191;28;20168;-64
2023/05/22 06:12:48;;;;;;;11.07;8.70;;;;;;;20.27;70.97;99984.31;5010560;28;20267;-64
2023/05/22 06:15:14;;;;;;;13.70;10.27;;;;;;;20.27;71.13;99984.31;5009161;28;20173;-65
2023/05/22 06:17:40;;;;;;;12.53;8.87;;;;;;;20.27;70.81;99981.44;5012166;28;20182;-64
2023/05/22 06:20:07;;;;;;;11.90;9.50;;;;;;;20.26;70.61;99982.66;5029636;28;20204;-65
2023/05/22 06:22:33;;;;;;;12.03;9.03;;;;;;;20.25;70.69;99993.31;5049325;28;20489;-65
2023/05/22 06:24:58;;;;;;;11.70;9.80;;;;;;;20.27;70.74;99990.03;5013735;28;20759;-65
2023/05/22 06:27:26;;;;;;;18.87;9.77;;;;;;;20.26;70.60;99985.53;5011564;28;20192;-64
2023/05/22 06:29:51;;;;;;;12.93;10.13;;;;;;;20.26;71.04;99997.00;5008182;28;20524;-65
2023/05/22 06:32:17;;;;;;;12.30;9.90;;;;;;;20.25;70.64;99999.03;5021310;28;20435;-64
2023/05/22 06:34:44;;;;;;;11.03;9.60;;;;;;;20.25;71.12;99999.03;5015897;28;20246;-64
2023/05/22 06:37:10;;;;;;;11.87;9.77;;;;;;;20.26;70.56;99997.81;5013720;28;20555;-64
2023/05/22 06:39:36;;;;;;;13.30;10.67;;;;;;;20.25;70.97;99998.19;5011108;28;20458;-64
2023/05/22 06:42:01;;;;;;;11.13;9.00;;;;;;;20.25;70.77;99995.34;5016161;28;20422;-64
2023/05/22 06:44:27;;;;;;;12.57;9.97;;;;;;;20.25;71.11;100001.06;5015055;28;20193;-64
2023/05/22 06:46:52;;;;;;;13.33;9.10;;;;;;;20.24;71.17;100003.13;5013056;28;20292;-64
2023/05/22 06:49:18;;;;;;;13.47;9.60;;;;;;;20.24;70.85;100008.03;5014852;28;20229;-64
2023/05/22 06:51:44;;;;;;;10.50;9.40;;;;;;;20.24;70.98;99999.44;5011190;28;20196;-64
2023/05/22 06:54:11;;;;;;;11.63;8.67;;;;;;;20.24;70.83;100005.16;5015027;28;20188;-64
2023/05/22 06:56:37;;;;;;;11.17;9.03;;;;;;;20.23;70.90;99995.75;5027692;28;20405;-64
2023/05/22 06:59:02;;;;;;;10.03;8.03;;;;;;;20.24;71.08;100002.28;5008997;28;20820;-64
2023/05/22 07:01:28;;;;;;;10.80;8.67;;;;;;;20.24;70.59;100003.13;5029920;28;20247;-64
2023/05/22 07:03:56;;;;;;;9.53;8.20;;;;;;;20.23;70.96;100004.34;5025000;28;20199;-63
2023/05/22 07:06:21;;;;;;;12.33;9.43;;;;;;;20.24;70.95;100005.16;5009208;28;20170;-64
2023/05/22 07:08:47;;;;;;;12.53;9.10;;;;;;;20.25;70.99;100006.81;5009596;28;20447;-64
2023/05/22 07:11:12;;;;;;;10.50;8.50;;;;;;;20.25;70.64;100001.06;5011699;28;20601;-64
2023/05/22 07:13:38;;;;;;;9.90;8.77;;;;;;;20.25;70.68;100007.63;5027280;28;20569;-64
2023/05/22 07:16:03;;;;;;;13.97;10.07;;;;;;;20.26;70.72;100011.34;5022340;28;20664;-63
2023/05/22 07:18:30;;;;;;;11.90;8.43;;;;;;;20.27;70.59;100012.97;5010724;28;20551;-64
2023/05/22 07:20:55;;;;;;;11.23;8.40;;;;;;;20.26;70.50;100003.53;5032200;28;20291;-63
2023/05/22 07:23:20;;;;;;;13.23;8.60;;;;;;;20.26;70.64;100012.13;5025051;28;20465;-64
2023/05/22 07:25:46;;;;;;;11.40;8.80;;;;;;;20.27;70.50;100018.72;5029182;28;20184;-64
2023/05/22 07:28:12;;;;;;;12.07;8.90;;;;;;;20.28;70.63;100014.63;5026373;28;20188;-64
2023/05/22 07:30:37;;;;;;;12.10;8.83;;;;;;;20.28;70.59;100015.44;5029849;28;20738;-64
2023/05/22 07:33:03;;;;;;;11.67;8.97;;;;;;;20.28;70.85;100015.44;5030076;28;20252;-64
2023/05/22 07:35:29;;;;;;;10.87;8.53;;;;;;;20.29;70.45;100016.25;5011253;28;20204;-64
2023/05/22 07:37:54;;;;;;;12.60;9.13;;;;;;;20.30;70.16;100013.00;5009658;28;20416;-64
2023/05/22 07:40:20;;;;;;;11.67;8.80;;;;;;;20.31;70.60;100008.09;5011484;28;20212;-64
2023/05/22 07:42:45;;;;;;;12.20;9.23;;;;;;;20.32;70.50;100018.34;5016748;28;20230;-64
2023/05/22 07:45:11;;;;;;;11.70;8.60;;;;;;;20.33;70.57;100017.09;5027243;28;20180;-64
2023/05/22 07:47:36;;;;;;;10.37;8.97;;;;;;;20.33;70.58;100009.34;5012100;28;20200;-64
2023/05/22 07:50:03;;;;;;;12.50;10.00;;;;;;;20.33;70.56;100017.94;5036194;28;20912;-64
2023/05/22 07:52:29;;;;;;;11.80;9.20;;;;;;;20.33;70.85;100015.06;5030884;28;20247;-64
2023/05/22 07:54:54;;;;;;;10.53;8.37;;;;;;;20.35;70.80;100014.66;5010423;28;20443;-64
2023/05/22 07:57:21;;;;;;;11.70;8.87;;;;;;;20.34;70.51;100019.56;5009939;28;20176;-64
2023/05/22 07:59:47;;;;;;;10.80;8.30;;;;;;;20.35;70.98;100015.47;5009703;28;20236;-64
2023/05/22 08:02:13;;;;;;;11.90;9.00;;;;;;;20.35;70.69;100015.47;5004324;28;20451;-65
2023/05/22 08:04:38;;;;;;;14.60;9.20;;;;;;;20.35;70.66;100017.50;5025086;28;20181;-64
2023/05/22 08:07:04;;;;;;;11.60;8.60;;;;;;;20.34;70.43;100015.88;5011081;28;20279;-64
2023/05/22 08:09:30;;;;;;;11.40;8.77;;;;;;;20.35;70.59;100017.50;5011429;28;20212;-64
2023/05/22 08:11:55;;;;;;;15.50;9.50;;;;;;;20.35;70.56;100026.13;5008828;28;20227;-64
2023/05/22 08:14:21;;;;;;;10.10;7.93;;;;;;;20.34;70.46;100025.31;5010383;28;20193;-64
2023/05/22 08:16:46;;;;;;;11.80;8.50;;;;;;;20.36;70.48;100022.84;4990271;28;20193;-64
2023/05/22 08:19:11;;;;;;;12.80;8.80;;;;;;;20.36;70.52;100022.84;5012522;28;20249;-65
2023/05/22 08:21:37;;;;;;;16.03;9.27;;;;;;;20.37;70.40;100024.50;5011151;28;20695;-64
2023/05/22 08:24:03;;;;;;;11.93;8.70;;;;;;;20.37;70.61;100021.63;5008196;28;20169;-63
2023/05/22 08:26:28;;;;;;;10.40;9.07;;;;;;;20.37;70.73;100018.75;5014980;28;20215;-64
2023/05/22 08:28:54;;;;;;;11.90;9.47;;;;;;;20.36;70.59;100020.00;5013558;28;20257;-64
2023/05/22 08:31:19;;;;;;;13.30;9.67;;;;;;;20.37;70.76;100018.75;5010774;28;20176;-64
2023/05/22 08:33:45;;;;;;;15.03;8.67;;;;;;;20.36;70.84;100016.31;5010334;28;20189;-64
2023/05/22 08:36:11;;;;;;;11.13;8.37;;;;;;;20.37;70.83;100013.03;5006719;28;20162;-64
2023/05/22 08:38:37;;;;;;;11.50;8.13;;;;;;;20.37;71.07;100015.88;5009444;28;20611;-65
2023/05/22 08:41:02;;;;;;;12.43;8.77;;;;;;;20.37;70.86;100018.75;5006590;28;20474;-64
2023/05/22 08:43:28;;;;;;;11.90;8.70;;;;;;;20.37;71.02;100021.63;5001959;28;20187;-64
2023/05/22 08:45:59;;;;;;;10.27;8.70;;;;;;;20.38;71.14;100014.69;5018131;28;20195;-64
2023/05/22 08:48:25;;;;;;;11.63;8.97;;;;;;;20.38;71.31;100014.69;5013884;28;20181;-64
2023/05/22 08:50:56;;;;;;;14.03;8.10;;;;;;;20.38;71.19;100008.97;5040605;28;20774;-64
2023/05/22 08:53:22;;;;;;;11.37;8.30;;;;;;;20.37;71.15;100015.88;5030193;28;20199;-63
2023/05/22 08:55:48;;;;;;;11.53;8.57;;;;;;;20.38;71.51;100011.81;5008573;28;20416;-64
2023/05/22 08:58:14;;;;;;;11.23;7.70;;;;;;;20.39;71.27;100021.22;5009029;28;20503;-64
2023/05/22 09:00:40;;;;;;;11.47;8.73;;;;;;;20.39;71.64;100010.59;5009850;28;20208;-64
2023/05/22 09:03:08;;;;;;;13.50;9.07;;;;;;;20.39;71.29;100018.38;4990946;28;20423;-64
2023/05/22 09:05:35;;;;;;;11.03;8.67;;;;;;;20.40;71.34;100002.78;5006366;28;20157;-64
2023/05/22 09:08:03;;;;;;;10.87;8.20;;;;;;;20.40;71.13;100009.38;5014404;28;20475;-65
2023/05/22 09:10:28;;;;;;;10.90;8.60;;;;;;;20.41;71.35;100013.06;5025866;28;20736;-64
2023/05/22 09:13:04;;;;;;;9.30;8.13;;;;;;;20.41;70.88;100005.28;5023366;28;20449;-64
2023/05/22 09:15:30;;;;;;;11.50;7.83;;;;;;;20.42;71.29;99997.50;5007522;28;20636;-64
2023/05/22 09:17:56;;;;;;;11.80;8.40;;;;;;;20.42;71.34;100009.78;5006319;28;20482;-64
2023/05/22 09:20:21;;;;;;;10.93;7.60;;;;;;;20.42;71.31;100006.09;5027944;28;20451;-64
2023/05/22 09:22:47;;;;;;;9.50;7.97;;;;;;;20.42;71.16;100004.03;5026537;28;20211;-64
2023/05/22 09:25:16;;;;;;;10.33;7.63;;;;;;;20.42;71.05;100006.09;5020900;28;20193;-64
2023/05/22 09:27:45;;;;;;;15.57;8.70;;;;;;;20.44;71.29;100006.50;5013211;28;20634;-64
2023/05/22 09:30:11;;;;;;;10.73;8.60;;;;;;;20.44;71.22;100000.78;5020948;28;20439;-64
2023/05/22 09:32:36;;;;;;;11.00;8.60;;;;;;;20.44;71.43;99997.91;5027337;28;20415;-64
2023/05/22 09:35:05;;;;;;;10.97;8.63;;;;;;;20.43;71.22;100002.84;5011873;28;20443;-64
2023/05/22 09:37:35;;;;;;;10.93;8.20;;;;;;;20.44;71.35;99995.88;5025520;28;20222;-64
2023/05/22 09:40:09;;;;;;;9.73;7.87;;;;;;;20.44;71.53;99995.88;5026043;28;21254;-64
2023/05/22 09:42:35;;;;;;;9.90;8.27;;;;;;;20.43;71.62;99990.53;5015943;28;20505;-64
2023/05/22 09:45:05;;;;;;;9.13;7.97;;;;;;;20.43;71.57;99999.97;5026477;28;20431;-64
2023/05/22 09:47:30;;;;;;;11.30;8.60;;;;;;;20.44;71.72;99998.75;5017809;28;20251;-64
2023/05/22 09:49:57;;;;;;;15.33;8.70;;;;;;;20.46;71.50;99998.34;5025118;28;20418;-64
2023/05/22 09:52:22;;;;;;;12.23;8.73;;;;;;;20.46;71.80;99998.34;5041510;28;20171;-64
2023/05/22 09:54:54;;;;;;;9.53;7.50;;;;;;;20.45;71.73;99991.78;5008001;28;20438;-64
2023/05/22 09:57:19;;;;;;;10.90;8.43;;;;;;;20.45;71.15;99996.69;5005553;28;20641;-64
2023/05/22 09:59:48;;;;;;;14.27;8.20;;;;;;;20.44;71.12;99995.88;5011920;28;20478;-64
2023/05/22 10:02:14;;;;;;;11.20;8.60;;;;;;;20.45;71.20;99994.66;5006083;28;20296;-63
2023/05/22 10:04:39;;;;;;;11.37;8.67;;;;;;;20.46;70.95;99992.63;4992807;28;21019;-63
2023/05/22 10:07:05;;;;;;;11.60;8.83;;;;;;;20.46;70.76;99995.47;5024736;28;20691;-63
2023/05/22 10:09:33;;;;;;;11.37;8.87;;;;;;;20.45;71.01;99988.91;5028669;28;20632;-64
2023/05/22 10:12:03;;;;;;;9.03;7.57;;;;;;;20.46;70.81;99981.94;5009263;28;20662;-64
2023/05/22 10:14:28;;;;;;;10.63;8.53;;;;;;;20.45;70.95;99980.31;5030488;28;20473;-64
2023/05/22 10:16:55;;;;;;;9.70;7.40;;;;;;;20.46;70.75;99981.94;5007711;28;20531;-64
2023/05/22 10:19:25;;;;;;;10.90;8.40;;;;;;;20.46;70.81;99979.06;5035136;28;20212;-63
2023/05/22 10:21:51;;;;;;;10.90;8.03;;;;;;;20.47;70.59;99974.97;5049389;28;20430;-64
2023/05/22 10:24:16;;;;;;;12.83;9.40;;;;;;;20.48;70.57;99967.22;5013445;28;20786;-64
2023/05/22 10:26:42;;;;;;;13.37;9.53;;;;;;;20.50;70.72;99971.31;5025463;28;20195;-64
2023/05/22 10:29:11;;;;;;;12.10;8.87;;;;;;;20.51;70.68;99969.25;4999088;28;20184;-64
2023/05/22 10:32:04;;;;;;;12.27;8.13;;;;;;;20.51;70.93;99964.34;5026932;28;20991;-64
2023/05/22 10:34:39;;;;;;;14.57;8.97;;;;;;;20.50;70.88;99956.97;5030126;28;20858;-64
2023/05/22 10:37:11;;;;;;;14.13;9.73;;;;;;;20.51;70.45;99963.53;5026210;28;20521;-64
2023/05/22 10:39:46;;;;;;;10.27;8.43;;;;;;;20.50;71.04;99956.97;5026367;28;20543;-64
2023/05/22 10:42:12;;;;;;;12.70;9.33;;;;;;;20.51;70.66;99955.75;4994070;28;20471;-64
2023/05/22 10:44:38;;;;;;;12.23;9.50;;;;;;;20.51;70.52;99958.63;5012066;28;20510;-64
2023/05/22 10:47:11;;;;;;;12.40;9.40;;;;;;;20.53;70.45;99959.03;5008451;28;21084;-64
2023/05/22 10:49:39;;;;;;;12.03;8.40;;;;;;;20.54;70.87;99949.22;5010525;28;20202;-63
2023/05/22 10:52:04;;;;;;;12.43;9.67;;;;;;;20.54;70.96;99940.63;5031584;28;20434;-63
2023/05/22 10:54:43;;;;;;;11.80;9.03;;;;;;;20.54;71.02;99929.16;5042712;28;20457;-63
2023/05/22 10:57:17;;;;;;;20.07;9.53;;;;;;;20.55;71.09;99932.81;5009965;28;20649;-63
2023/05/22 10:59:45;;;;;;;11.50;9.43;;;;;;;20.55;71.05;99927.09;5026125;28;20549;-63
2023/05/22 11:02:24;;;;;;;11.83;9.23;;;;;;;20.55;70.92;99922.19;5009873;28;20892;-63
2023/05/22 11:04:49;;;;;;;12.10;8.77;;;;;;;20.56;71.14;99920.13;5011793;28;20475;-63
2023/05/22 11:07:15;;;;;;;12.50;9.70;;;;;;;20.56;71.35;99918.09;5007719;28;20476;-63
2023/05/22 11:09:46;;;;;;;12.50;9.67;;;;;;;20.57;71.16;99919.72;5010690;28;20212;-63
2023/05/22 11:12:25;;;;;;;13.57;9.73;;;;;;;20.58;70.67;99912.75;5009971;28;20161;-63
2023/05/22 11:14:55;;;;;;;13.10;9.60;;;;;;;20.59;71.03;99925.06;5009646;28;21311;-63
2023/05/22 11:17:26;;;;;;;12.80;9.53;;;;;;;20.59;70.96;99930.78;5010464;28;20447;-63
2023/05/22 11:20:14;;;;;;;14.00;9.60;;;;;;;20.61;70.48;99919.72;4996137;28;20468;-63
2023/05/22 11:22:41;;;;;;;11.60;9.50;;;;;;;20.57;70.77;99919.72;5007833;28;20443;-63